Flight Track Log - Related Links

Times and Time Zones

All times are in EDT time to prevent confusion due to time zone crossing. See the JIA2421 flight status page for this flight to view local times or setup timezone preferences in your user account.


Time Position Orientation Groundspeed Altitude Reporting Facility
EDT Latitude Longitude Course Direction KTS MPH feet Rate Location/Type
Sun 09:39:37 AM 38.8794 -77.0661 169° South 163 188 1,700  Level Washington Center
Sun 09:40:35 AM 38.9206 -77.1097 320° Northwest 216 249 3,800 2,186 Climbing Washington Center
Sun 09:41:00 AM 38.6143 -76.7858 134° Southeast  Level FlightAware Approximate
Sun 09:41:46 AM 39.0000 -77.1667 331° Northwest 284 327 6,400  Level Potomac TRACON
Sun 09:42:00 AM 38.5312 -76.7162 171° South  Level FlightAware Approximate
Sun 09:42:46 AM 39.0500 -77.1000 46° Northeast 311 358 9,000  Level Potomac TRACON
Sun 09:43:00 AM 38.4292 -76.7000 180° South  Level FlightAware Approximate
Sun 09:43:40 AM 39.0333 -77.0000 102° East 310 357 11,000  Level Potomac TRACON
Sun 09:44:00 AM 38.3393 -76.6833 180° South  Level FlightAware Approximate
Sun 09:44:46 AM 38.9667 -76.9167 136° Southeast 332 382 13,100  Level Potomac TRACON
Sun 09:45:00 AM 38.2372 -76.6718 169° South  Level FlightAware Approximate
Sun 09:46:36 AM 38.8131 -76.8411 159° South 346 398 16,400  Level Washington Center
Sun 09:47:36 AM 38.7239 -76.7997 160° South 346 398 17,800 1,289 Climbing Washington Center
Sun 09:48:37 AM 38.6325 -76.7611 162° South 346 398 19,000 700 Climbing Washington Center
Sun 09:49:36 AM 38.5369 -76.7250 164° South 346 398 19,200 800 Climbing Washington Center
Sun 09:50:37 AM 38.4369 -76.7103 173° South 352 405 20,600 1,373 Climbing Washington Center
Sun 09:51:34 AM 38.3350 -76.6981 175° South 365 420 21,900 1,119 Climbing Washington Center
Sun 09:52:35 AM 38.2453 -76.6836 173° South 365 420 22,800 942 Climbing Washington Center
Sun 09:53:35 AM 38.1411 -76.6717 175° South 370 426 23,800 984 Climbing Washington Center
Sun 09:54:37 AM 38.0392 -76.6569 174° South 370 426 24,800 885 Climbing Washington Center
Sun 09:55:37 AM 37.9350 -76.6475 176° South 370 426 25,600 756 Climbing Washington Center
Sun 09:56:36 AM 37.8286 -76.6619 186° South 376 433 26,300 700 Climbing Washington Center
Sun 09:57:37 AM 37.7200 -76.6761 186° South 383 441 27,000 712 Climbing Washington Center
Sun 09:58:34 AM 37.6114 -76.6875 185° South 390 449 27,700 661 Climbing Washington Center
Sun 09:59:35 AM 37.5006 -76.7017 186° South 395 455 28,300 590 Climbing Washington Center
Sun 10:00:36 AM 37.3919 -76.7317 192° South 401 461 28,900 595 Climbing Washington Center
Sun 10:01:36 AM 37.2850 -76.7744 198° South 401 461 29,500 545 Climbing Washington Center
Sun 10:02:37 AM 37.1803 -76.8197 199° South 407 468 30,000 252 Climbing Washington Center
Sun 10:03:35 AM 37.0736 -76.8647 199° South 407 468 30,000  Level Washington Center
Sun 10:04:36 AM 36.9667 -76.9097 199° South 407 468 30,000  Level Washington Center
Sun 10:05:37 AM 36.8619 -76.9547 199° South 407 468 30,000  Level Washington Center
Sun 10:06:34 AM 36.7550 -76.9969 198° South 407 468 30,000  Level Washington Center
Sun 10:07:35 AM 36.6561 -77.0650 209° Southwest 407 468 30,000  Level Washington Center
Sun 10:08:35 AM 36.5694 -77.1514 219° Southwest 407 468 30,000  Level Washington Center
Sun 10:09:36 AM 36.4808 -77.2297 215° Southwest 407 468 30,000  Level Washington Center
Sun 10:10:36 AM 36.3919 -77.3156 218° Southwest 407 468 30,000  Level Washington Center
Sun 10:11:37 AM 36.3031 -77.3986 217° Southwest 407 468 30,000  Level Washington Center
Sun 10:12:37 AM 36.2183 -77.4817 218° Southwest 402 463 30,000  Level Washington Center
Sun 10:13:36 AM 36.1272 -77.5644 216° Southwest 402 463 30,000  Level Washington Center
Sun 10:14:36 AM 36.0297 -77.6569 218° Southwest 402 463 30,000  Level Washington Center
Sun 10:15:37 AM 35.9386 -77.7367 215° Southwest 402 463 30,000  Level Washington Center
Sun 10:16:39 AM 35.8433 -77.8111 212° Southwest 402 463 30,000  Level Washington Center
Sun 10:17:36 AM 35.7503 -77.8853 213° Southwest 407 468 30,000  Level Washington Center
Sun 10:18:36 AM 35.6547 -77.9617 213° Southwest 407 468 30,000  Level Washington Center
Sun 10:19:37 AM 35.5594 -78.0328 211° Southwest 407 468 30,000  Level Washington Center
Sun 10:20:37 AM 35.4642 -78.1064 212° Southwest 412 474 30,000  Level Washington Center
Sun 10:21:34 AM 35.3664 -78.1800 212° Southwest 412 474 30,000  Level Washington Center
Sun 10:22:35 AM 35.2689 -78.2556 212° Southwest 417 480 30,000  Level Washington Center
Sun 10:23:35 AM 35.1733 -78.3311 213° Southwest 422 486 30,000  Level Washington Center
Sun 10:24:36 AM 35.0756 -78.4067 212° Southwest 422 486 30,000  Level Washington Center
Sun 10:26:18 AM 34.9164 -78.5256 211° Southwest 395 455 30,000  Level Jacksonville Center
Sun 10:27:18 AM 34.8231 -78.5986 213° Southwest 402 463 30,000  Level Jacksonville Center
Sun 10:28:18 AM 34.7233 -78.6744 212° Southwest 407 468 30,000  Level Jacksonville Center
Sun 10:29:18 AM 34.6278 -78.7472 212° Southwest 407 468 30,000  Level Jacksonville Center
Sun 10:30:18 AM 34.5300 -78.8225 212° Southwest 412 474 30,000  Level Jacksonville Center
Sun 10:31:18 AM 34.4244 -78.9081 214° Southwest 417 480 30,000  Level Jacksonville Center
Sun 10:32:18 AM 34.3286 -78.9828 213° Southwest 422 486 30,000  Level Jacksonville Center
Sun 10:33:18 AM 34.2286 -79.0550 211° Southwest 422 486 30,000  Level Jacksonville Center
Sun 10:34:18 AM 34.1328 -79.1269 212° Southwest 422 486 30,000  Level Jacksonville Center
Sun 10:35:18 AM 34.0347 -79.1989 211° Southwest 417 480 30,000  Level Jacksonville Center
Sun 10:36:18 AM 33.9389 -79.2706 212° Southwest 417 480 30,000  Level Jacksonville Center
Sun 10:37:18 AM 33.8428 -79.3419 212° Southwest 417 480 30,000  Level Jacksonville Center
Sun 10:38:18 AM 33.7467 -79.4133 212° Southwest 417 480 30,000  Level Jacksonville Center
Sun 10:39:18 AM 33.6650 -79.4739 212° Southwest 412 474 30,000  Level Jacksonville Center
Sun 10:40:18 AM 33.5686 -79.5450 212° Southwest 407 468 30,000  Level Jacksonville Center
Sun 10:41:18 AM 33.4725 -79.6133 211° Southwest 407 468 30,000  Level Jacksonville Center
Sun 10:42:18 AM 33.3700 -79.6917 213° Southwest 401 461 30,000  Level Jacksonville Center
Sun 10:43:18 AM 33.2736 -79.7597 211° Southwest 401 461 30,000  Level Jacksonville Center
Sun 10:44:18 AM 33.1775 -79.8300 211° Southwest 401 461 30,000  Level Jacksonville Center
Sun 10:45:18 AM 33.0831 -79.9003 212° Southwest 401 461 30,000  Level Jacksonville Center
Sun 10:46:18 AM 32.9844 -79.9681 210° Southwest 401 461 30,000  Level Jacksonville Center
Sun 10:47:18 AM 32.8881 -80.0378 211° Southwest 401 461 30,000  Level Jacksonville Center
Sun 10:48:18 AM 32.7956 -80.1125 214° Southwest 401 461 30,000  Level Jacksonville Center
Sun 10:49:18 AM 32.7033 -80.1844 213° Southwest 406 467 30,000  Level Jacksonville Center
Sun 10:50:18 AM 32.6089 -80.2589 214° Southwest 406 467 30,000  Level Jacksonville Center
Sun 10:51:18 AM 32.5164 -80.3328 214° Southwest 411 473 30,000 -150 Level Jacksonville Center
Sun 10:52:18 AM 32.4219 -80.4069 214° Southwest 411 473 29,700 -1,100 Descending Jacksonville Center
Sun 10:53:18 AM 32.3189 -80.4833 212° Southwest 424 488 27,800 -1,500 Descending Jacksonville Center
Sun 10:54:18 AM 32.2142 -80.5647 213° Southwest 454 522 26,700 -1,000 Descending Jacksonville Center
Sun 10:55:18 AM 32.1214 -80.6383 214° Southwest 459 528 25,800 -1,000 Descending Jacksonville Center
Sun 10:56:18 AM 32.0061 -80.7269 213° Southwest 454 522 24,700 -900 Descending Jacksonville Center
Sun 10:57:18 AM 31.9050 -80.8025 212° Southwest 446 513 24,000 -350 Descending Jacksonville Center
Sun 10:58:18 AM 31.8206 -80.8681 213° Southwest 424 488 24,000  Level Jacksonville Center
Sun 10:59:18 AM 31.7194 -80.9436 212° Southwest 406 467 24,000 -900 Level Jacksonville Center
Sun 11:00:18 AM 31.6264 -81.0139 213° Southwest 410 472 22,200 -1,950 Descending Jacksonville Center
Sun 11:01:18 AM 31.5419 -81.0789 213° Southwest 405 466 20,100 -2,150 Descending Jacksonville Center
Sun 11:02:18 AM 31.4425 -81.1514 212° Southwest 399 459 17,900 -2,150 Descending Jacksonville Center
Sun 11:03:18 AM 31.3536 -81.2164 212° Southwest 389 448 15,800 -2,050 Descending Jacksonville Center
Sun 11:04:18 AM 31.2753 -81.2811 215° Southwest 390 449 13,800 -1,850 Descending Jacksonville Center
Sun 11:05:18 AM 31.1925 -81.3408 212° Southwest 379 436 12,100 -900 Descending Jacksonville Center
Sun 11:06:18 AM 31.1219 -81.3928 212° Southwest 342 394 12,000 -500 Descending Jacksonville Center
Sun 11:07:18 AM 31.0558 -81.4400 211° Southwest 307 353 11,100 -1,000 Descending Jacksonville Center
Sun 11:08:18 AM 30.9725 -81.4631 193° South 294 338 10,000 -550 Descending Jacksonville Center
Sun 11:09:18 AM 30.8936 -81.4861 194° South 294 338 10,000 -850 Level Jacksonville Center
Sun 11:10:18 AM 30.8164 -81.5089 194° South 294 338 8,300 -1,800 Descending Jacksonville Center
Sun 11:11:18 AM 30.7436 -81.5317 195° South 284 327 6,400 -2,000 Descending Jacksonville Center
Sun 11:12:18 AM 30.6728 -81.5544 195° South 273 314 4,300 -1,750 Descending Jacksonville Center
Sun 11:13:18 AM 30.6064 -81.5747 195° South 267 307 2,900 -1,400 Descending Jacksonville Center

Login

Don't have an account? Register now (free) for customized features, flight alerts, and more!